Time;durP1;ratioP1;P1;durP2;ratioP2;P2;SDS_P1;SDS_P2;PMS_P1;PMS_P2;Temp;Humidity;BMP_temperature;BMP_pressure;BME280_temperature;BME280_humidity;BME280_pressure;Samples;Min_cycle;Max_cycle;Signal;HPM_P1;HPM_P2
2021/12/21 00:00:48;;;;;;;133.07;36.07;;;5.00;95.80;;;;;;5030288;28;20659;-68
2021/12/21 00:03:16;;;;;;;161.00;40.40;;;5.00;95.80;;;;;;5040940;28;20256;-68
2021/12/21 00:05:44;;;;;;;108.83;36.63;;;5.00;95.80;;;;;;5024671;28;20287;-68
2021/12/21 00:08:12;;;;;;;212.13;41.10;;;5.00;95.80;;;;;;5028992;28;20231;-68
2021/12/21 00:10:43;;;;;;;177.50;40.60;;;5.00;95.80;;;;;;5018912;28;20217;-68
2021/12/21 00:14:20;;;;;;;165.13;39.53;;;5.00;95.80;;;;;;5018638;28;20225;-68
2021/12/21 00:16:27;;;;;;;156.60;39.70;;;5.00;95.80;;;;;;5019223;28;20223;-68
2021/12/21 00:24:02;;;;;;;190.00;42.50;;;5.00;95.80;;;;;;5025011;28;20224;-68
2021/12/21 00:26:29;;;;;;;137.50;43.40;;;5.00;95.80;;;;;;5021891;28;20220;-68
2021/12/21 00:28:59;;;;;;;153.30;44.63;;;5.00;95.80;;;;;;5032107;28;20594;-68
2021/12/21 00:31:31;;;;;;;174.07;43.27;;;5.00;95.80;;;;;;5013614;28;20237;-68
2021/12/21 00:34:00;;;;;;;149.33;41.57;;;5.10;95.80;;;;;;5017696;28;20652;-68
2021/12/21 00:36:30;;;;;;;158.93;39.50;;;5.10;95.80;;;;;;5037991;28;20223;-68
2021/12/21 00:39:06;;;;;;;149.53;42.37;;;5.10;95.80;;;;;;5028041;28;20211;-68
2021/12/21 00:41:34;;;;;;;154.63;42.30;;;5.10;95.80;;;;;;5030443;28;20221;-68
2021/12/21 00:44:01;;;;;;;131.47;42.77;;;5.00;95.80;;;;;;5026156;28;20216;-68
2021/12/21 00:46:28;;;;;;;144.03;40.50;;;5.10;95.80;;;;;;5024361;28;20553;-68
2021/12/21 00:49:01;;;;;;;145.70;40.27;;;5.10;95.80;;;;;;5017552;28;20223;-68
2021/12/21 00:51:29;;;;;;;137.17;39.30;;;5.10;95.80;;;;;;5013255;28;20232;-68
2021/12/21 00:53:56;;;;;;;144.30;40.77;;;5.10;95.80;;;;;;5026834;28;20223;-68
2021/12/21 00:56:23;;;;;;;137.57;42.60;;;5.10;95.80;;;;;;5026437;28;20215;-68
2021/12/21 00:58:50;;;;;;;135.27;39.77;;;5.10;95.80;;;;;;5024990;28;20230;-68
2021/12/21 01:01:17;;;;;;;151.37;44.07;;;5.10;95.80;;;;;;5046096;28;20217;-68
2021/12/21 01:03:49;;;;;;;148.50;40.70;;;5.10;95.80;;;;;;5022865;28;20237;-68
2021/12/21 01:06:26;;;;;;;142.63;38.70;;;5.10;95.80;;;;;;5023871;28;20694;-68
2021/12/21 01:11:47;;;;;;;110.43;37.63;;;5.00;95.70;;;;;;5013621;28;20701;-68
2021/12/21 01:19:59;;;;;;;137.80;38.33;;;5.00;95.70;;;;;;5018208;28;20215;-68
2021/12/21 01:23:04;;;;;;;122.03;37.00;;;5.00;95.80;;;;;;5013583;28;20225;-69
2021/12/21 01:25:25;;;;;;;110.00;36.13;;;5.00;95.80;;;;;;5016340;28;20216;-68
2021/12/21 01:30:40;;;;;;;117.60;36.47;;;5.00;95.80;;;;;;5016776;28;20224;-68
2021/12/21 01:35:42;;;;;;;115.03;36.10;;;5.00;95.80;;;;;;5016967;28;20285;-68
2021/12/21 01:41:20;;;;;;;108.10;33.93;;;5.00;95.80;;;;;;5015108;28;20217;-68
2021/12/21 01:44:05;;;;;;;100.60;34.57;;;5.00;95.80;;;;;;5013605;28;20216;-68
2021/12/21 01:49:41;;;;;;;103.57;33.57;;;5.00;95.70;;;;;;5022127;28;20441;-68
2021/12/21 01:52:14;;;;;;;99.53;32.03;;;5.00;95.70;;;;;;5016519;28;20262;-68
2021/12/21 01:54:42;;;;;;;86.33;32.70;;;5.00;95.70;;;;;;5014177;28;20214;-68
2021/12/21 01:57:10;;;;;;;105.07;35.10;;;5.00;95.70;;;;;;5018287;28;20206;-68
2021/12/21 01:59:38;;;;;;;98.10;33.97;;;5.10;95.80;;;;;;5038958;28;20216;-68
2021/12/21 02:02:08;;;;;;;93.13;32.90;;;5.10;95.70;;;;;;5035884;28;20218;-68
2021/12/21 02:04:36;;;;;;;102.23;35.80;;;5.10;95.70;;;;;;5012354;28;20742;-68
2021/12/21 02:07:05;;;;;;;99.93;33.63;;;5.10;95.70;;;;;;5016317;28;20424;-68
2021/12/21 02:09:37;;;;;;;102.40;33.20;;;5.10;95.80;;;;;;5021735;28;20223;-68
2021/12/21 02:12:16;;;;;;;90.17;33.00;;;5.10;95.80;;;;;;5024680;28;20242;-68
2021/12/21 02:14:52;;;;;;;87.37;32.07;;;5.10;95.70;;;;;;5027721;28;20222;-68
2021/12/21 02:20:06;;;;;;;81.93;33.77;;;5.20;95.70;;;;;;5021071;28;20222;-68
2021/12/21 02:22:37;;;;;;;98.60;33.23;;;5.10;95.70;;;;;;5026344;28;20221;-68
2021/12/21 02:25:31;;;;;;;92.83;33.57;;;5.20;95.70;;;;;;5027573;28;20220;-68
2021/12/21 02:30:27;;;;;;;79.30;31.00;;;5.20;95.70;;;;;;5002561;28;20217;-68
2021/12/21 02:32:54;;;;;;;85.60;33.03;;;5.20;95.70;;;;;;5015486;28;20332;-68
2021/12/21 02:35:21;;;;;;;80.90;30.43;;;5.20;95.70;;;;;;5012648;28;20593;-68
2021/12/21 02:37:48;;;;;;;97.47;33.77;;;5.20;95.70;;;;;;4998375;28;20208;-68
2021/12/21 02:40:15;;;;;;;81.97;32.50;;;5.20;95.70;;;;;;5019676;28;20220;-68
2021/12/21 02:42:42;;;;;;;84.70;31.63;;;5.20;95.60;;;;;;4991008;28;20228;-68
2021/12/21 02:45:11;;;;;;;83.03;31.10;;;5.20;95.60;;;;;;5029156;28;20205;-68
2021/12/21 02:47:38;;;;;;;79.83;31.30;;;5.20;95.60;;;;;;5025580;28;20233;-68
2021/12/21 02:50:07;;;;;;;79.43;32.13;;;5.20;95.40;;;;;;5001315;28;20235;-68
2021/12/21 02:52:34;;;;;;;78.10;29.83;;;5.20;95.40;;;;;;5023072;28;20242;-68
2021/12/21 02:55:05;;;;;;;78.63;31.90;;;5.20;95.50;;;;;;5028545;28;20509;-68
2021/12/21 02:57:33;;;;;;;75.00;31.83;;;5.20;95.50;;;;;;5028097;28;20218;-68
2021/12/21 03:00:01;;;;;;;73.63;30.50;;;5.20;95.60;;;;;;5026758;28;20593;-68
2021/12/21 03:02:30;;;;;;;72.83;29.40;;;5.20;95.60;;;;;;5024501;28;20214;-68
2021/12/21 03:04:58;;;;;;;70.93;30.00;;;5.20;95.60;;;;;;5044495;28;20242;-68
2021/12/21 03:10:13;;;;;;;75.17;30.60;;;5.20;95.30;;;;;;5026878;28;20226;-68
2021/12/21 03:15:23;;;;;;;75.93;30.63;;;5.20;95.40;;;;;;5027839;28;20216;-68
2021/12/21 03:17:52;;;;;;;73.83;31.20;;;5.20;95.50;;;;;;5018604;28;20213;-68
2021/12/21 03:20:19;;;;;;;73.60;31.50;;;5.20;95.50;;;;;;5026326;28;20210;-68
2021/12/21 03:22:47;;;;;;;69.63;29.37;;;5.20;95.50;;;;;;5020937;28;20427;-68
2021/12/21 03:25:14;;;;;;;71.50;30.73;;;5.20;95.50;;;;;;5032939;28;20304;-68
2021/12/21 03:27:41;;;;;;;73.30;32.07;;;5.20;95.50;;;;;;5014990;28;20213;-68
2021/12/21 03:30:13;;;;;;;73.27;30.70;;;5.20;95.50;;;;;;5043369;28;20209;-68
2021/12/21 03:32:40;;;;;;;79.40;31.90;;;5.20;95.50;;;;;;5023541;28;20391;-68
2021/12/21 03:35:08;;;;;;;75.67;32.23;;;5.20;95.50;;;;;;5019289;28;20210;-68
2021/12/21 03:37:36;;;;;;;72.87;30.67;;;5.20;95.50;;;;;;5029930;28;20215;-68
2021/12/21 03:40:04;;;;;;;71.80;30.13;;;5.20;95.50;;;;;;5022448;28;20202;-68
2021/12/21 03:42:31;;;;;;;80.50;32.73;;;5.30;95.60;;;;;;5023107;28;20226;-68
2021/12/21 03:44:58;;;;;;;83.67;32.13;;;5.30;95.60;;;;;;5028722;28;20205;-68
2021/12/21 03:47:26;;;;;;;67.37;29.67;;;5.30;95.60;;;;;;5014460;28;20380;-68
2021/12/21 03:50:00;;;;;;;72.40;30.87;;;5.30;95.60;;;;;;5017444;28;20548;-68
2021/12/21 03:52:28;;;;;;;74.23;31.33;;;5.30;95.50;;;;;;5024039;28;20324;-68
2021/12/21 03:55:01;;;;;;;66.50;30.67;;;5.30;95.50;;;;;;5020058;28;20207;-68
2021/12/21 03:57:29;;;;;;;78.00;30.57;;;5.30;95.60;;;;;;5028332;28;20228;-68
2021/12/21 03:59:57;;;;;;;74.97;30.90;;;5.40;95.50;;;;;;5030208;28;20205;-68
2021/12/21 04:02:26;;;;;;;68.57;29.63;;;5.40;95.50;;;;;;5040094;28;20227;-68
2021/12/21 04:04:56;;;;;;;62.27;30.10;;;5.40;95.50;;;;;;5019648;28;20246;-68
2021/12/21 04:07:23;;;;;;;67.57;29.20;;;5.30;95.50;;;;;;5017167;28;20652;-68
2021/12/21 04:09:50;;;;;;;67.63;31.53;;;5.40;95.50;;;;;;5019956;28;20217;-68
2021/12/21 04:12:18;;;;;;;63.73;29.17;;;5.40;95.50;;;;;;5017836;28;20240;-68
2021/12/21 04:14:45;;;;;;;68.23;30.97;;;5.40;95.50;;;;;;5012359;28;20561;-68
2021/12/21 04:17:18;;;;;;;74.17;31.80;;;5.40;95.50;;;;;;5015422;28;20212;-68
2021/12/21 04:19:45;;;;;;;69.50;30.73;;;5.40;95.50;;;;;;5014029;28;20689;-68
2021/12/21 04:22:13;;;;;;;77.13;31.77;;;5.40;95.50;;;;;;5017986;28;20216;-68
2021/12/21 04:24:41;;;;;;;66.53;29.67;;;5.40;95.40;;;;;;5022176;28;20233;-68
2021/12/21 04:27:12;;;;;;;77.57;31.67;;;5.40;95.40;;;;;;5017930;28;20526;-68
2021/12/21 04:29:40;;;;;;;71.73;29.50;;;5.40;95.40;;;;;;5013771;28;20234;-68
2021/12/21 04:32:07;;;;;;;70.33;29.90;;;5.40;95.40;;;;;;5017965;28;20226;-68
2021/12/21 04:34:35;;;;;;;70.13;32.13;;;5.50;95.40;;;;;;5022388;28;20216;-68
2021/12/21 04:37:02;;;;;;;67.27;30.77;;;5.40;95.40;;;;;;5016282;28;20221;-68
2021/12/21 04:39:39;;;;;;;67.90;30.83;;;5.50;95.40;;;;;;5019271;28;20208;-68
2021/12/21 04:42:06;;;;;;;69.43;30.80;;;5.40;95.30;;;;;;5016823;28;20557;-70
2021/12/21 04:44:33;;;;;;;74.53;31.47;;;5.50;95.40;;;;;;5021207;28;20214;-68
2021/12/21 04:47:01;;;;;;;64.90;31.30;;;5.50;95.30;;;;;;5018271;28;20247;-67
2021/12/21 04:49:28;;;;;;;91.60;33.97;;;5.50;95.30;;;;;;4998323;28;20315;-68
2021/12/21 04:51:55;;;;;;;75.27;32.30;;;5.50;95.30;;;;;;5021644;28;20237;-68
2021/12/21 04:54:22;;;;;;;69.93;30.97;;;5.50;95.30;;;;;;5019264;28;20720;-68
2021/12/21 04:56:49;;;;;;;69.90;31.83;;;5.40;95.50;;;;;;5024517;28;20213;-68
2021/12/21 04:59:16;;;;;;;72.03;32.80;;;5.40;95.30;;;;;;5029198;28;20368;-68
2021/12/21 05:01:44;;;;;;;76.43;32.57;;;5.40;95.30;;;;;;5024910;28;20220;-68
2021/12/21 05:04:11;;;;;;;77.70;32.80;;;5.50;95.30;;;;;;4978213;28;1169370;-68
2021/12/21 05:06:38;;;;;;;67.07;30.93;;;5.50;95.30;;;;;;5002709;28;20214;-68
2021/12/21 05:09:23;;;;;;;78.30;31.67;;;5.40;95.30;;;;;;5003380;28;20214;-68
2021/12/21 05:11:51;;;;;;;83.33;32.27;;;5.50;95.30;;;;;;4999113;28;20209;-68
2021/12/21 05:14:18;;;;;;;68.10;31.43;;;5.50;95.30;;;;;;5019803;28;20213;-68
2021/12/21 05:16:45;;;;;;;77.83;33.13;;;5.40;95.30;;;;;;5024140;28;20219;-68
2021/12/21 05:19:12;;;;;;;77.53;33.17;;;5.40;95.20;;;;;;5022352;28;20525;-68
2021/12/21 05:21:39;;;;;;;80.43;31.60;;;5.40;95.30;;;;;;5022416;28;20565;-68
2021/12/21 05:24:06;;;;;;;75.07;32.23;;;5.50;95.30;;;;;;5026916;28;20229;-68
2021/12/21 05:26:33;;;;;;;76.33;33.30;;;5.50;95.30;;;;;;5021274;28;20230;-68
2021/12/21 05:29:00;;;;;;;79.40;34.50;;;5.40;95.30;;;;;;4999357;28;20213;-68
2021/12/21 05:31:28;;;;;;;73.47;34.17;;;5.40;95.30;;;;;;5013419;28;20227;-68
2021/12/21 05:33:55;;;;;;;81.83;35.23;;;5.40;95.30;;;;;;4984295;28;20235;-68
2021/12/21 05:36:22;;;;;;;72.17;32.67;;;5.40;95.30;;;;;;5021056;28;20204;-68
2021/12/21 05:38:54;;;;;;;72.47;33.27;;;5.40;95.30;;;;;;5024284;28;20217;-68
2021/12/21 05:41:28;;;;;;;78.10;33.30;;;5.40;95.30;;;;;;5017044;28;20216;-69
2021/12/21 05:43:56;;;;;;;74.93;34.13;;;5.40;95.30;;;;;;5004321;28;20230;-69
2021/12/21 05:46:23;;;;;;;75.37;34.60;;;5.40;95.30;;;;;;5019119;28;20545;-69
2021/12/21 05:48:52;;;;;;;83.13;32.67;;;5.40;95.30;;;;;;5024022;28;20229;-69
2021/12/21 05:51:20;;;;;;;86.77;32.80;;;5.40;95.30;;;;;;5014156;28;20600;-69
2021/12/21 05:53:48;;;;;;;77.93;33.90;;;5.40;95.30;;;;;;4998502;28;20237;-69
2021/12/21 05:56:16;;;;;;;77.60;34.13;;;5.40;95.30;;;;;;5020541;28;20213;-68
2021/12/21 05:58:43;;;;;;;76.93;33.63;;;5.40;95.30;;;;;;5025694;28;20225;-68
2021/12/21 06:01:10;;;;;;;75.37;33.50;;;5.40;95.30;;;;;;5030149;28;20232;-68
2021/12/21 06:03:37;;;;;;;73.50;33.17;;;5.40;95.30;;;;;;5031407;28;20249;-68
2021/12/21 06:06:10;;;;;;;78.27;36.07;;;5.40;95.40;;;;;;5026248;28;20312;-68
2021/12/21 06:08:38;;;;;;;72.60;32.83;;;5.40;95.30;;;;;;5021443;28;20218;-68
2021/12/21 06:11:10;;;;;;;82.10;33.10;;;5.40;95.30;;;;;;5009623;28;20268;-68
2021/12/21 06:26:43;;;;;;;68.43;33.63;;;5.50;95.20;;;;;;5017564;28;20221;-68
2021/12/21 06:29:11;;;;;;;71.33;33.63;;;5.50;95.10;;;;;;5022629;28;20277;-68
2021/12/21 06:31:39;;;;;;;65.27;32.73;;;5.50;95.10;;;;;;5026186;28;20474;-70
2021/12/21 06:34:06;;;;;;;60.97;31.03;;;5.40;95.00;;;;;;5032904;28;20236;-68
2021/12/21 06:36:34;;;;;;;64.47;32.03;;;5.40;95.00;;;;;;5012328;28;20231;-68
2021/12/21 06:39:02;;;;;;;58.80;31.10;;;5.40;94.90;;;;;;5025536;28;20210;-68
2021/12/21 06:41:30;;;;;;;59.83;29.30;;;5.40;94.90;;;;;;5028526;28;20213;-68
2021/12/21 06:43:57;;;;;;;60.13;29.47;;;5.30;94.80;;;;;;5030113;28;20225;-68
2021/12/21 06:51:58;;;;;;;48.77;27.33;;;5.20;94.70;;;;;;5030389;28;20210;-68
2021/12/21 06:54:25;;;;;;;52.80;29.07;;;5.20;94.70;;;;;;5034315;28;20237;-68
2021/12/21 06:56:52;;;;;;;45.03;26.83;;;5.20;94.80;;;;;;5019882;28;20274;-68
2021/12/21 06:59:19;;;;;;;45.43;25.70;;;5.20;94.80;;;;;;5007429;28;20609;-68
2021/12/21 07:01:48;;;;;;;48.67;25.90;;;5.20;94.70;;;;;;5027467;28;20202;-68
2021/12/21 07:04:17;;;;;;;47.50;25.73;;;5.10;94.70;;;;;;5013926;28;20337;-68
2021/12/21 07:06:46;;;;;;;42.73;25.30;;;5.10;94.70;;;;;;5028349;28;20635;-68
2021/12/21 07:09:21;;;;;;;45.10;25.70;;;5.10;94.70;;;;;;5043863;28;20205;-68
2021/12/21 07:20:17;;;;;;;44.50;26.53;;;5.00;94.70;;;;;;5022909;28;20224;-68
2021/12/21 07:22:44;;;;;;;43.20;25.53;;;5.00;94.60;;;;;;5027699;28;20228;-68
2021/12/21 07:25:12;;;;;;;44.17;25.90;;;5.00;94.60;;;;;;5032130;28;20576;-68
2021/12/21 07:27:39;;;;;;;43.83;25.23;;;5.00;94.60;;;;;;5020064;28;20227;-68
2021/12/21 07:30:07;;;;;;;46.00;27.20;;;5.00;94.50;;;;;;5038595;28;20221;-68
2021/12/21 07:32:34;;;;;;;45.33;24.97;;;5.00;94.50;;;;;;5042336;28;20215;-68
2021/12/21 07:35:02;;;;;;;41.07;25.37;;;5.00;94.50;;;;;;5046738;28;20271;-68
2021/12/21 07:37:29;;;;;;;41.43;25.30;;;5.00;94.50;;;;;;5016781;28;20216;-68
2021/12/21 07:39:57;;;;;;;38.50;24.47;;;5.00;94.50;;;;;;5023594;28;20216;-68
2021/12/21 07:42:24;;;;;;;44.27;25.73;;;5.00;94.60;;;;;;5026316;28;20214;-68
2021/12/21 07:44:51;;;;;;;41.97;26.17;;;5.10;94.60;;;;;;5035324;28;20239;-68
2021/12/21 07:47:18;;;;;;;41.30;25.67;;;5.10;94.50;;;;;;5014826;28;20249;-68
2021/12/21 07:49:46;;;;;;;47.70;25.67;;;5.10;94.50;;;;;;5038432;28;20222;-68
2021/12/21 07:52:14;;;;;;;39.80;25.77;;;5.10;94.50;;;;;;5039736;28;20207;-68
2021/12/21 07:54:41;;;;;;;46.20;25.83;;;5.10;94.40;;;;;;5016212;28;20238;-68
2021/12/21 07:57:08;;;;;;;42.40;25.03;;;5.10;94.40;;;;;;5014365;28;20223;-68
2021/12/21 07:59:37;;;;;;;41.33;25.37;;;5.10;94.40;;;;;;5017392;28;20224;-68
2021/12/21 08:02:11;;;;;;;44.23;25.43;;;5.10;94.30;;;;;;5020405;28;20508;-68
2021/12/21 08:04:39;;;;;;;44.10;26.17;;;5.20;94.40;;;;;;5017425;28;20242;-68
2021/12/21 08:07:12;;;;;;;42.87;24.90;;;5.10;94.30;;;;;;5029705;28;20693;-68
2021/12/21 08:09:43;;;;;;;41.10;24.00;;;5.20;94.30;;;;;;5010302;28;20213;-69
2021/12/21 08:12:16;;;;;;;40.27;24.77;;;5.20;94.30;;;;;;5019538;28;20208;-68
2021/12/21 08:14:44;;;;;;;41.73;25.00;;;5.20;94.30;;;;;;5023100;28;20245;-68
2021/12/21 08:17:11;;;;;;;40.40;24.60;;;5.20;94.30;;;;;;5006134;28;20206;-69
2021/12/21 08:19:43;;;;;;;41.97;26.03;;;5.20;94.20;;;;;;5012737;28;20216;-68
2021/12/21 08:22:12;;;;;;;42.67;25.97;;;5.20;94.20;;;;;;5011880;28;20305;-68
2021/12/21 08:24:41;;;;;;;41.23;25.43;;;5.20;94.10;;;;;;5030786;28;20300;-68
2021/12/21 08:27:08;;;;;;;44.10;25.83;;;5.30;94.10;;;;;;5014403;28;20217;-68
2021/12/21 08:29:35;;;;;;;40.90;26.30;;;5.20;94.10;;;;;;5012550;28;20216;-68
2021/12/21 08:32:03;;;;;;;40.87;25.23;;;5.30;94.10;;;;;;5029996;28;20260;-69
2021/12/21 08:34:30;;;;;;;43.50;24.37;;;5.30;94.10;;;;;;5026886;28;20698;-68
2021/12/21 08:36:57;;;;;;;42.73;25.90;;;5.30;94.10;;;;;;5027592;28;20296;-68
2021/12/21 08:39:26;;;;;;;39.37;24.13;;;5.30;94.00;;;;;;5014090;28;20638;-68
2021/12/21 08:41:59;;;;;;;39.50;24.87;;;5.40;94.00;;;;;;5022622;28;20265;-68
2021/12/21 08:44:26;;;;;;;38.37;24.27;;;5.40;94.00;;;;;;5019630;28;20265;-68
2021/12/21 08:46:57;;;;;;;42.63;25.10;;;5.40;94.00;;;;;;5007507;28;20280;-69
2021/12/21 08:49:27;;;;;;;45.37;26.20;;;5.40;94.00;;;;;;5022675;28;20217;-68
2021/12/21 08:51:55;;;;;;;40.30;24.93;;;5.50;94.00;;;;;;5000916;28;20454;-68
2021/12/21 08:54:23;;;;;;;38.23;23.77;;;5.50;94.00;;;;;;5022569;28;20317;-68
2021/12/21 08:56:50;;;;;;;42.33;24.43;;;5.50;94.00;;;;;;5007504;28;20206;-68
2021/12/21 08:59:18;;;;;;;38.47;26.00;;;5.50;93.90;;;;;;5028178;28;20549;-69
2021/12/21 09:01:46;;;;;;;37.93;24.83;;;5.60;93.90;;;;;;5010153;28;20533;-68
2021/12/21 09:04:18;;;;;;;38.47;25.07;;;5.60;93.80;;;;;;5023520;28;20269;-68
2021/12/21 09:06:46;;;;;;;40.93;24.50;;;5.60;93.70;;;;;;5028996;28;20275;-69
2021/12/21 09:09:13;;;;;;;41.63;26.20;;;5.70;93.80;;;;;;4996730;28;20229;-68
2021/12/21 09:11:40;;;;;;;38.93;23.47;;;5.70;93.70;;;;;;5017661;28;20558;-68
2021/12/21 09:14:07;;;;;;;40.00;25.80;;;5.70;93.70;;;;;;5027574;28;20238;-68
2021/12/21 09:16:34;;;;;;;39.87;24.30;;;5.80;93.70;;;;;;4996353;28;20229;-68
2021/12/21 09:19:03;;;;;;;38.83;24.97;;;5.80;93.60;;;;;;5031143;28;20642;-68
2021/12/21 09:21:31;;;;;;;38.07;25.93;;;5.90;93.60;;;;;;5015581;28;20214;-68
2021/12/21 09:23:58;;;;;;;37.80;25.27;;;5.90;93.60;;;;;;5022436;28;20300;-68
2021/12/21 09:26:27;;;;;;;42.83;25.63;;;5.90;93.60;;;;;;5026195;28;20234;-68
2021/12/21 09:28:56;;;;;;;37.83;24.80;;;6.00;93.60;;;;;;5024501;28;20218;-68
2021/12/21 09:31:23;;;;;;;39.83;25.87;;;6.10;93.50;;;;;;5012092;28;20216;-68
2021/12/21 09:33:51;;;;;;;42.20;24.80;;;6.10;93.50;;;;;;5028952;28;20222;-68
2021/12/21 09:36:18;;;;;;;41.33;25.27;;;6.20;93.40;;;;;;5029193;28;20301;-68
2021/12/21 09:38:46;;;;;;;43.77;25.30;;;6.20;93.30;;;;;;5029160;28;20214;-68
2021/12/21 09:41:13;;;;;;;40.07;25.00;;;6.20;93.20;;;;;;5020561;28;20196;-67
2021/12/21 09:43:43;;;;;;;38.17;24.27;;;6.30;92.90;;;;;;5017117;28;20288;-67
2021/12/21 09:46:11;;;;;;;39.17;24.73;;;6.30;92.70;;;;;;5021607;28;20228;-67
2021/12/21 09:48:38;;;;;;;38.47;24.43;;;6.30;92.80;;;;;;5026715;28;20229;-68
2021/12/21 09:51:06;;;;;;;41.23;25.33;;;6.30;92.60;;;;;;5029886;28;20242;-68
2021/12/21 09:53:35;;;;;;;39.87;24.90;;;6.30;92.40;;;;;;5016786;28;20254;-68
2021/12/21 09:56:06;;;;;;;32.60;23.20;;;6.30;92.40;;;;;;5019003;28;20225;-68
2021/12/21 09:58:33;;;;;;;37.57;24.80;;;6.30;92.60;;;;;;5026003;28;20206;-68
2021/12/21 10:01:02;;;;;;;35.47;24.33;;;6.40;92.60;;;;;;5012641;28;20646;-68
2021/12/21 10:03:29;;;;;;;38.63;25.20;;;6.40;92.20;;;;;;5011383;28;20241;-68
2021/12/21 10:06:15;;;;;;;36.77;23.40;;;6.40;92.30;;;;;;5009990;28;20245;-68
2021/12/21 10:08:43;;;;;;;36.13;23.87;;;6.40;92.40;;;;;;5018672;28;20678;-68
2021/12/21 10:11:28;;;;;;;39.17;24.57;;;6.50;92.50;;;;;;5041647;28;20301;-68
2021/12/21 10:14:05;;;;;;;38.00;24.90;;;6.50;92.60;;;;;;5023034;28;20241;-68
2021/12/21 10:16:32;;;;;;;39.97;25.17;;;6.60;92.70;;;;;;5027006;28;20221;-68
2021/12/21 10:19:04;;;;;;;36.67;24.63;;;6.70;92.70;;;;;;5031647;28;20305;-67
2021/12/21 10:21:31;;;;;;;42.17;26.50;;;6.70;92.60;;;;;;5012333;28;20235;-67
2021/12/21 10:23:58;;;;;;;43.83;25.27;;;6.80;92.60;;;;;;5031197;28;20233;-67
2021/12/21 10:26:29;;;;;;;34.97;25.10;;;6.80;92.60;;;;;;5018303;28;20281;-67
2021/12/21 10:29:02;;;;;;;37.30;24.43;;;6.90;92.50;;;;;;5024956;28;20221;-67
2021/12/21 10:31:40;;;;;;;39.47;26.20;;;6.90;92.40;;;;;;5028787;28;20224;-67
2021/12/21 10:34:16;;;;;;;41.23;26.07;;;7.00;92.40;;;;;;5014708;28;20237;-67
2021/12/21 10:36:50;;;;;;;37.83;24.07;;;7.00;92.40;;;;;;5035102;28;20639;-68
2021/12/21 10:39:24;;;;;;;38.10;24.23;;;7.10;92.40;;;;;;5023375;28;20309;-68
2021/12/21 10:41:52;;;;;;;37.43;24.90;;;7.10;92.30;;;;;;5013298;28;20256;-68
2021/12/21 10:44:21;;;;;;;39.07;24.50;;;7.20;92.20;;;;;;5026646;28;20225;-68
2021/12/21 10:46:53;;;;;;;40.97;25.47;;;7.20;92.20;;;;;;5021313;28;20501;-68
2021/12/21 10:49:37;;;;;;;41.63;26.83;;;7.30;92.20;;;;;;5030631;28;20597;-68
2021/12/21 10:52:10;;;;;;;37.27;25.30;;;7.30;92.10;;;;;;5012727;28;20301;-68
2021/12/21 10:54:46;;;;;;;38.80;23.90;;;7.40;92.00;;;;;;4999925;28;20275;-68
2021/12/21 10:57:23;;;;;;;34.47;23.93;;;7.40;91.90;;;;;;5037006;28;20656;-68
2021/12/21 10:59:53;;;;;;;38.83;25.50;;;7.40;91.80;;;;;;5018848;28;20604;-68
2021/12/21 11:02:26;;;;;;;40.10;25.40;;;7.50;91.70;;;;;;5012272;28;20628;-68
2021/12/21 11:04:59;;;;;;;39.97;24.67;;;7.50;91.30;;;;;;5013360;28;20312;-67
2021/12/21 11:07:41;;;;;;;40.20;24.27;;;7.60;91.30;;;;;;5022441;28;20615;-67
2021/12/21 11:10:20;;;;;;;41.73;26.00;;;7.60;91.30;;;;;;5023278;28;20603;-67
2021/12/21 11:13:14;;;;;;;37.23;23.70;;;7.70;91.30;;;;;;5041838;28;20218;-67
2021/12/21 11:15:54;;;;;;;37.33;23.47;;;7.70;91.30;;;;;;5018776;28;20201;-67
2021/12/21 11:18:23;;;;;;;37.40;25.20;;;7.70;90.70;;;;;;5020965;28;20507;-68
2021/12/21 11:20:55;;;;;;;41.10;24.47;;;7.70;90.40;;;;;;5022871;28;20339;-68
2021/12/21 11:23:24;;;;;;;37.40;25.07;;;7.60;90.50;;;;;;5013041;28;20202;-68
2021/12/21 11:25:58;;;;;;;42.73;27.13;;;7.60;90.20;;;;;;5018534;28;20215;-68
2021/12/21 11:28:35;;;;;;;39.03;26.00;;;7.60;90.50;;;;;;5025691;28;20210;-68
2021/12/21 11:31:07;;;;;;;41.20;23.80;;;7.60;90.80;;;;;;5041516;28;20214;-67
2021/12/21 11:33:42;;;;;;;33.53;24.07;;;7.70;91.00;;;;;;5025056;28;20234;-67
2021/12/21 11:38:58;;;;;;;38.47;24.60;;;7.80;91.20;;;;;;5025847;28;20269;-67
2021/12/21 11:41:26;;;;;;;35.57;24.87;;;7.80;91.10;;;;;;5042557;28;20718;-67
2021/12/21 11:44:05;;;;;;;39.13;23.97;;;7.90;91.00;;;;;;5027339;28;20214;-67
2021/12/21 11:46:51;;;;;;;37.57;24.90;;;7.90;90.90;;;;;;5024131;28;20227;-67
2021/12/21 11:49:42;;;;;;;35.43;23.37;;;8.00;90.80;;;;;;5023477;28;20222;-67
2021/12/21 11:52:14;;;;;;;36.40;24.00;;;8.00;90.60;;;;;;5028173;28;20219;-67
2021/12/21 11:54:58;;;;;;;38.53;25.53;;;8.00;90.40;;;;;;5028588;28;20325;-67
2021/12/21 11:57:59;;;;;;;36.93;24.13;;;8.10;90.40;;;;;;5035806;28;20208;-67
2021/12/21 12:00:30;;;;;;;38.93;23.97;;;8.10;90.40;;;;;;4992427;28;20207;-68
2021/12/21 12:03:19;;;;;;;32.60;23.90;;;8.10;90.40;;;;;;5041968;28;20229;-68
2021/12/21 12:06:07;;;;;;;34.37;23.13;;;8.20;90.40;;;;;;5014310;28;20215;-67
2021/12/21 12:08:50;;;;;;;40.00;24.27;;;8.10;89.10;;;;;;5027884;28;20221;-67
2021/12/21 12:11:24;;;;;;;36.90;24.03;;;8.10;89.50;;;;;;5024462;28;20298;-68
2021/12/21 12:14:07;;;;;;;38.13;25.00;;;8.20;90.00;;;;;;5014084;28;20244;-68
2021/12/21 12:16:42;;;;;;;36.97;24.10;;;8.20;90.00;;;;;;5025744;28;20205;-68
2021/12/21 12:19:11;;;;;;;35.83;23.37;;;8.20;90.00;;;;;;5024884;28;20206;-68
2021/12/21 12:21:39;;;;;;;34.67;21.40;;;8.30;90.00;;;;;;5005613;28;20487;-68
2021/12/21 12:24:18;;;;;;;34.10;21.40;;;8.20;89.80;;;;;;5018576;28;20223;-68
2021/12/21 12:27:02;;;;;;;34.27;22.90;;;8.20;89.60;;;;;;5002116;28;20314;-67
2021/12/21 12:30:10;;;;;;;29.97;21.30;;;8.20;89.40;;;;;;5018953;28;20734;-68
2021/12/21 12:32:43;;;;;;;30.63;21.63;;;8.10;87.90;;;;;;4992922;28;20656;-68
2021/12/21 12:35:17;;;;;;;34.33;22.93;;;8.10;88.50;;;;;;5010807;28;20590;-68
2021/12/21 12:37:57;;;;;;;33.53;21.77;;;8.00;88.60;;;;;;5017844;28;20217;-67
2021/12/21 12:40:40;;;;;;;33.03;22.00;;;8.00;88.90;;;;;;5005873;28;20200;-67
2021/12/21 12:43:26;;;;;;;36.43;22.27;;;7.90;89.00;;;;;;5028378;28;20210;-67
2021/12/21 12:46:02;;;;;;;31.30;21.27;;;7.80;88.90;;;;;;5026643;28;20305;-67
2021/12/21 12:48:39;;;;;;;34.27;22.60;;;7.80;88.90;;;;;;5019171;28;20218;-67
2021/12/21 12:51:08;;;;;;;34.07;22.90;;;7.80;89.30;;;;;;5023305;28;20241;-67
2021/12/21 12:53:37;;;;;;;33.30;21.73;;;7.80;89.50;;;;;;5024078;28;20343;-67
2021/12/21 12:56:05;;;;;;;34.83;20.37;;;7.80;89.80;;;;;;5020047;28;20249;-67
2021/12/21 12:58:54;;;;;;;33.03;21.77;;;7.70;89.00;;;;;;5003017;28;20627;-67
2021/12/21 13:01:27;;;;;;;31.97;20.47;;;7.70;88.60;;;;;;5008706;28;20233;-67
2021/12/21 13:04:00;;;;;;;30.23;21.03;;;7.70;88.90;;;;;;5022835;28;20264;-67
2021/12/21 13:06:34;;;;;;;35.53;21.20;;;7.70;88.90;;;;;;5024103;28;20214;-67
2021/12/21 13:09:08;;;;;;;31.80;21.83;;;7.60;88.70;;;;;;5021855;28;20593;-67
2021/12/21 13:11:40;;;;;;;35.13;22.47;;;7.60;89.10;;;;;;5004014;28;20663;-68
2021/12/21 13:14:10;;;;;;;35.87;21.03;;;7.60;89.00;;;;;;5025568;28;20605;-68
2021/12/21 13:16:38;;;;;;;31.10;21.57;;;7.60;89.30;;;;;;5002187;28;20226;-68
2021/12/21 13:19:11;;;;;;;33.90;21.63;;;7.50;89.50;;;;;;5013269;28;20649;-68
2021/12/21 13:21:58;;;;;;;31.07;20.20;;;7.50;89.00;;;;;;5022911;28;20550;-68
2021/12/21 13:24:33;;;;;;;35.37;20.53;;;7.40;89.50;;;;;;5010706;28;20666;-68
2021/12/21 13:27:08;;;;;;;29.53;19.73;;;7.40;89.70;;;;;;5021640;28;20219;-68
2021/12/21 13:29:35;;;;;;;35.20;19.37;;;7.30;90.20;;;;;;4998678;28;20233;-68
2021/12/21 13:32:08;;;;;;;31.37;18.30;;;7.30;90.30;;;;;;5023301;28;20237;-68
2021/12/21 13:34:39;;;;;;;32.40;19.13;;;7.30;90.20;;;;;;5028662;28;20227;-68
2021/12/21 13:37:12;;;;;;;26.43;18.50;;;7.30;90.30;;;;;;5020164;28;20213;-68
2021/12/21 13:39:44;;;;;;;32.07;19.70;;;7.30;90.30;;;;;;5026480;28;20212;-67
2021/12/21 13:42:22;;;;;;;37.80;21.50;;;7.30;90.30;;;;;;5012722;28;20649;-67
2021/12/21 13:44:53;;;;;;;41.43;23.90;;;7.30;90.30;;;;;;5024481;28;20657;-67
2021/12/21 13:47:22;;;;;;;38.10;21.83;;;7.30;90.50;;;;;;5023282;28;20226;-67
2021/12/21 13:49:58;;;;;;;38.80;22.43;;;7.30;90.60;;;;;;5019379;28;20217;-67
2021/12/21 13:52:28;;;;;;;44.60;24.70;;;7.30;90.90;;;;;;5022736;28;20672;-67
2021/12/21 13:54:55;;;;;;;39.77;23.27;;;7.30;91.00;;;;;;5023509;28;20774;-67
2021/12/21 13:57:25;;;;;;;44.13;25.50;;;7.30;91.10;;;;;;5022573;28;20314;-67
2021/12/21 13:59:56;;;;;;;44.13;26.40;;;7.30;91.00;;;;;;5025635;28;20234;-67